sensor_id;sensor_type;location;lat;lon;timestamp;temperature;humidity
41664;DHT22;27353;50.906;7.248;2022-07-23T00:00:57;17.90;99.90
41664;DHT22;27353;50.906;7.248;2022-07-23T00:03:23;17.90;99.90
41664;DHT22;27353;50.906;7.248;2022-07-23T00:05:48;17.90;99.90
41664;DHT22;27353;50.906;7.248;2022-07-23T00:08:14;17.80;99.90
41664;DHT22;27353;50.906;7.248;2022-07-23T00:10:40;17.70;99.90
41664;DHT22;27353;50.906;7.248;2022-07-23T00:13:06;17.70;99.90
41664;DHT22;27353;50.906;7.248;2022-07-23T00:15:31;17.70;99.90
41664;DHT22;27353;50.906;7.248;2022-07-23T00:17:57;17.70;99.90
41664;DHT22;27353;50.906;7.248;2022-07-23T00:20:22;17.70;99.90
41664;DHT22;27353;50.906;7.248;2022-07-23T00:22:49;17.70;99.90
41664;DHT22;27353;50.906;7.248;2022-07-23T00:25:15;17.70;99.90
41664;DHT22;27353;50.906;7.248;2022-07-23T00:27:41;17.70;99.90
41664;DHT22;27353;50.906;7.248;2022-07-23T00:30:08;17.70;99.90
41664;DHT22;27353;50.906;7.248;2022-07-23T00:32:47;17.80;99.90
41664;DHT22;27353;50.906;7.248;2022-07-23T00:35:13;17.70;99.90
41664;DHT22;27353;50.906;7.248;2022-07-23T00:37:38;17.70;99.90
41664;DHT22;27353;50.906;7.248;2022-07-23T00:40:05;17.70;99.90
41664;DHT22;27353;50.906;7.248;2022-07-23T00:42:31;17.70;99.90
41664;DHT22;27353;50.906;7.248;2022-07-23T00:44:57;17.70;99.90
41664;DHT22;27353;50.906;7.248;2022-07-23T00:47:23;17.70;99.90
41664;DHT22;27353;50.906;7.248;2022-07-23T00:49:48;17.70;99.90
41664;DHT22;27353;50.906;7.248;2022-07-23T00:52:14;17.70;99.90
41664;DHT22;27353;50.906;7.248;2022-07-23T00:54:40;17.60;99.90
41664;DHT22;27353;50.906;7.248;2022-07-23T00:57:05;17.70;99.90
41664;DHT22;27353;50.906;7.248;2022-07-23T00:59:31;17.60;99.90
41664;DHT22;27353;50.906;7.248;2022-07-23T01:01:57;17.60;99.90
41664;DHT22;27353;50.906;7.248;2022-07-23T01:04:22;17.60;99.90
41664;DHT22;27353;50.906;7.248;2022-07-23T01:06:48;17.70;99.90
41664;DHT22;27353;50.906;7.248;2022-07-23T01:09:14;17.70;99.90
41664;DHT22;27353;50.906;7.248;2022-07-23T01:11:41;17.70;99.90
41664;DHT22;27353;50.906;7.248;2022-07-23T01:14:16;17.60;99.90
41664;DHT22;27353;50.906;7.248;2022-07-23T01:16:44;17.70;99.90
41664;DHT22;27353;50.906;7.248;2022-07-23T01:19:11;17.60;99.90
41664;DHT22;27353;50.906;7.248;2022-07-23T01:21:42;17.60;99.90
41664;DHT22;27353;50.906;7.248;2022-07-23T01:24:08;17.60;99.90
41664;DHT22;27353;50.906;7.248;2022-07-23T01:26:35;17.60;99.90
41664;DHT22;27353;50.906;7.248;2022-07-23T01:29:02;17.70;99.90
41664;DHT22;27353;50.906;7.248;2022-07-23T01:31:28;17.70;99.90
41664;DHT22;27353;50.906;7.248;2022-07-23T01:33:53;17.70;99.90
41664;DHT22;27353;50.906;7.248;2022-07-23T01:36:19;17.70;99.90
41664;DHT22;27353;50.906;7.248;2022-07-23T01:38:45;17.70;99.90
41664;DHT22;27353;50.906;7.248;2022-07-23T01:41:10;17.70;99.90
41664;DHT22;27353;50.906;7.248;2022-07-23T01:43:36;17.70;99.90
41664;DHT22;27353;50.906;7.248;2022-07-23T01:46:01;17.70;99.90
41664;DHT22;27353;50.906;7.248;2022-07-23T01:48:27;17.70;99.90
41664;DHT22;27353;50.906;7.248;2022-07-23T01:50:53;17.60;99.90
41664;DHT22;27353;50.906;7.248;2022-07-23T01:53:18;17.60;99.90
41664;DHT22;27353;50.906;7.248;2022-07-23T01:55:44;17.60;99.90
41664;DHT22;27353;50.906;7.248;2022-07-23T01:58:09;17.50;99.90
41664;DHT22;27353;50.906;7.248;2022-07-23T02:00:35;17.50;99.90
41664;DHT22;27353;50.906;7.248;2022-07-23T02:03:01;17.50;99.90
41664;DHT22;27353;50.906;7.248;2022-07-23T02:05:27;17.60;99.90
41664;DHT22;27353;50.906;7.248;2022-07-23T02:07:54;17.60;99.90
41664;DHT22;27353;50.906;7.248;2022-07-23T02:10:21;17.60;99.90
41664;DHT22;27353;50.906;7.248;2022-07-23T02:12:46;17.60;99.90
41664;DHT22;27353;50.906;7.248;2022-07-23T02:15:12;17.60;99.90
41664;DHT22;27353;50.906;7.248;2022-07-23T02:17:38;17.60;99.90
41664;DHT22;27353;50.906;7.248;2022-07-23T02:20:05;17.60;99.90
41664;DHT22;27353;50.906;7.248;2022-07-23T02:22:31;17.60;99.90
41664;DHT22;27353;50.906;7.248;2022-07-23T02:24:56;17.60;99.90
41664;DHT22;27353;50.906;7.248;2022-07-23T02:27:22;17.60;99.90
41664;DHT22;27353;50.906;7.248;2022-07-23T02:29:49;17.50;99.90
41664;DHT22;27353;50.906;7.248;2022-07-23T02:32:14;17.60;99.90
41664;DHT22;27353;50.906;7.248;2022-07-23T02:34:40;17.50;99.90
41664;DHT22;27353;50.906;7.248;2022-07-23T02:37:05;17.50;99.90
41664;DHT22;27353;50.906;7.248;2022-07-23T02:39:31;17.50;99.90
41664;DHT22;27353;50.906;7.248;2022-07-23T02:41:56;17.40;99.90
41664;DHT22;27353;50.906;7.248;2022-07-23T02:44:22;17.40;99.90
41664;DHT22;27353;50.906;7.248;2022-07-23T02:46:48;17.30;99.90
41664;DHT22;27353;50.906;7.248;2022-07-23T02:49:13;17.30;99.90
41664;DHT22;27353;50.906;7.248;2022-07-23T02:51:39;17.20;99.90
41664;DHT22;27353;50.906;7.248;2022-07-23T02:54:04;17.30;99.90
41664;DHT22;27353;50.906;7.248;2022-07-23T02:56:30;17.20;99.90
41664;DHT22;27353;50.906;7.248;2022-07-23T02:58:56;17.30;99.90
41664;DHT22;27353;50.906;7.248;2022-07-23T03:01:21;17.20;99.90
41664;DHT22;27353;50.906;7.248;2022-07-23T03:03:47;17.20;99.90
41664;DHT22;27353;50.906;7.248;2022-07-23T03:06:13;17.20;99.90
41664;DHT22;27353;50.906;7.248;2022-07-23T03:08:39;17.20;99.90
41664;DHT22;27353;50.906;7.248;2022-07-23T03:11:04;17.20;99.90
41664;DHT22;27353;50.906;7.248;2022-07-23T03:13:39;17.20;99.90
41664;DHT22;27353;50.906;7.248;2022-07-23T03:16:05;17.20;99.90
41664;DHT22;27353;50.906;7.248;2022-07-23T03:18:31;17.20;99.90
41664;DHT22;27353;50.906;7.248;2022-07-23T03:20:57;17.10;99.90
41664;DHT22;27353;50.906;7.248;2022-07-23T03:23:22;17.10;99.90
41664;DHT22;27353;50.906;7.248;2022-07-23T03:25:48;17.10;99.90
41664;DHT22;27353;50.906;7.248;2022-07-23T03:28:17;17.10;99.90
41664;DHT22;27353;50.906;7.248;2022-07-23T03:30:47;17.10;99.90
41664;DHT22;27353;50.906;7.248;2022-07-23T03:33:13;17.00;99.90
41664;DHT22;27353;50.906;7.248;2022-07-23T03:35:39;17.00;99.90
41664;DHT22;27353;50.906;7.248;2022-07-23T03:38:05;17.00;99.90
41664;DHT22;27353;50.906;7.248;2022-07-23T03:40:30;17.00;99.90
41664;DHT22;27353;50.906;7.248;2022-07-23T03:42:56;17.00;99.90
41664;DHT22;27353;50.906;7.248;2022-07-23T03:45:22;17.00;99.90
41664;DHT22;27353;50.906;7.248;2022-07-23T03:47:47;16.90;99.90
41664;DHT22;27353;50.906;7.248;2022-07-23T03:50:13;16.90;99.90
41664;DHT22;27353;50.906;7.248;2022-07-23T03:52:38;16.90;99.90
41664;DHT22;27353;50.906;7.248;2022-07-23T03:55:04;16.80;99.90
41664;DHT22;27353;50.906;7.248;2022-07-23T03:57:30;16.80;99.90
41664;DHT22;27353;50.906;7.248;2022-07-23T03:59:56;16.70;99.90
41664;DHT22;27353;50.906;7.248;2022-07-23T04:02:22;16.70;99.90
41664;DHT22;27353;50.906;7.248;2022-07-23T04:04:47;16.60;99.90
41664;DHT22;27353;50.906;7.248;2022-07-23T04:07:13;16.60;99.90
41664;DHT22;27353;50.906;7.248;2022-07-23T04:09:39;16.60;99.90
41664;DHT22;27353;50.906;7.248;2022-07-23T04:12:07;16.50;99.90
41664;DHT22;27353;50.906;7.248;2022-07-23T04:14:33;16.50;99.90
41664;DHT22;27353;50.906;7.248;2022-07-23T04:16:59;16.50;99.90
41664;DHT22;27353;50.906;7.248;2022-07-23T04:19:25;16.50;99.90
41664;DHT22;27353;50.906;7.248;2022-07-23T04:21:51;16.40;99.90
41664;DHT22;27353;50.906;7.248;2022-07-23T04:24:17;16.40;99.90
41664;DHT22;27353;50.906;7.248;2022-07-23T04:26:43;16.40;99.90
41664;DHT22;27353;50.906;7.248;2022-07-23T04:29:09;16.40;99.90
41664;DHT22;27353;50.906;7.248;2022-07-23T04:31:35;16.40;99.90
41664;DHT22;27353;50.906;7.248;2022-07-23T04:34:00;16.40;99.90
41664;DHT22;27353;50.906;7.248;2022-07-23T04:36:26;16.40;99.90
41664;DHT22;27353;50.906;7.248;2022-07-23T04:38:51;16.50;99.90
41664;DHT22;27353;50.906;7.248;2022-07-23T04:41:17;16.60;99.90
41664;DHT22;27353;50.906;7.248;2022-07-23T04:43:43;16.60;99.90
41664;DHT22;27353;50.906;7.248;2022-07-23T04:46:08;16.80;99.90
41664;DHT22;27353;50.906;7.248;2022-07-23T04:48:36;17.00;99.90
41664;DHT22;27353;50.906;7.248;2022-07-23T04:51:02;17.20;99.90
41664;DHT22;27353;50.906;7.248;2022-07-23T04:53:28;17.20;99.90
41664;DHT22;27353;50.906;7.248;2022-07-23T04:55:53;17.40;99.90
41664;DHT22;27353;50.906;7.248;2022-07-23T04:58:19;17.50;99.90
41664;DHT22;27353;50.906;7.248;2022-07-23T05:00:45;17.70;99.90
41664;DHT22;27353;50.906;7.248;2022-07-23T05:03:11;17.80;99.90
41664;DHT22;27353;50.906;7.248;2022-07-23T05:05:36;17.90;99.90
41664;DHT22;27353;50.906;7.248;2022-07-23T05:08:03;18.30;99.90
41664;DHT22;27353;50.906;7.248;2022-07-23T05:10:28;18.50;99.90
41664;DHT22;27353;50.906;7.248;2022-07-23T05:12:54;18.40;99.90
41664;DHT22;27353;50.906;7.248;2022-07-23T05:15:19;18.50;99.90
41664;DHT22;27353;50.906;7.248;2022-07-23T05:17:45;18.50;99.90
41664;DHT22;27353;50.906;7.248;2022-07-23T05:20:11;18.70;99.90
41664;DHT22;27353;50.906;7.248;2022-07-23T05:22:36;19.00;99.90
41664;DHT22;27353;50.906;7.248;2022-07-23T05:25:02;19.20;99.90
41664;DHT22;27353;50.906;7.248;2022-07-23T05:27:30;19.20;99.90
41664;DHT22;27353;50.906;7.248;2022-07-23T05:29:55;19.40;99.90
41664;DHT22;27353;50.906;7.248;2022-07-23T05:32:21;19.10;99.90
41664;DHT22;27353;50.906;7.248;2022-07-23T05:34:46;19.50;99.90
41664;DHT22;27353;50.906;7.248;2022-07-23T05:37:12;19.80;99.90
41664;DHT22;27353;50.906;7.248;2022-07-23T05:39:38;20.20;99.90
41664;DHT22;27353;50.906;7.248;2022-07-23T05:42:03;20.50;99.90
41664;DHT22;27353;50.906;7.248;2022-07-23T05:44:29;21.00;99.90
41664;DHT22;27353;50.906;7.248;2022-07-23T05:46:55;21.50;99.90
41664;DHT22;27353;50.906;7.248;2022-07-23T05:49:20;21.90;99.90
41664;DHT22;27353;50.906;7.248;2022-07-23T05:51:46;21.90;99.90
41664;DHT22;27353;50.906;7.248;2022-07-23T05:54:11;22.20;99.90
41664;DHT22;27353;50.906;7.248;2022-07-23T05:56:37;22.20;99.90
41664;DHT22;27353;50.906;7.248;2022-07-23T05:59:03;21.70;99.90
41664;DHT22;27353;50.906;7.248;2022-07-23T06:01:28;21.70;99.90
41664;DHT22;27353;50.906;7.248;2022-07-23T06:03:54;21.80;99.90
41664;DHT22;27353;50.906;7.248;2022-07-23T06:06:19;21.70;99.90
41664;DHT22;27353;50.906;7.248;2022-07-23T06:08:45;22.10;99.90
41664;DHT22;27353;50.906;7.248;2022-07-23T06:11:11;22.30;99.90
41664;DHT22;27353;50.906;7.248;2022-07-23T06:13:36;22.90;99.90
41664;DHT22;27353;50.906;7.248;2022-07-23T06:16:02;23.00;99.90
41664;DHT22;27353;50.906;7.248;2022-07-23T06:18:28;22.60;99.90
41664;DHT22;27353;50.906;7.248;2022-07-23T06:20:53;23.10;99.90
41664;DHT22;27353;50.906;7.248;2022-07-23T06:23:19;23.60;99.90
41664;DHT22;27353;50.906;7.248;2022-07-23T06:25:45;23.80;99.90
41664;DHT22;27353;50.906;7.248;2022-07-23T06:28:11;23.80;99.90
41664;DHT22;27353;50.906;7.248;2022-07-23T06:30:37;24.10;99.90
41664;DHT22;27353;50.906;7.248;2022-07-23T06:33:03;24.20;99.90
41664;DHT22;27353;50.906;7.248;2022-07-23T06:35:28;24.60;99.90
41664;DHT22;27353;50.906;7.248;2022-07-23T06:37:54;24.60;99.90
41664;DHT22;27353;50.906;7.248;2022-07-23T06:40:20;25.10;99.90
41664;DHT22;27353;50.906;7.248;2022-07-23T06:42:46;25.50;99.90
41664;DHT22;27353;50.906;7.248;2022-07-23T06:45:11;25.60;99.90
41664;DHT22;27353;50.906;7.248;2022-07-23T06:47:37;26.30;99.90
41664;DHT22;27353;50.906;7.248;2022-07-23T06:50:03;26.40;99.90
41664;DHT22;27353;50.906;7.248;2022-07-23T06:52:28;27.10;99.90
41664;DHT22;27353;50.906;7.248;2022-07-23T06:54:54;27.00;99.30
41664;DHT22;27353;50.906;7.248;2022-07-23T06:57:20;26.80;98.60
41664;DHT22;27353;50.906;7.248;2022-07-23T06:59:46;27.40;97.90
41664;DHT22;27353;50.906;7.248;2022-07-23T07:02:11;27.80;96.30
41664;DHT22;27353;50.906;7.248;2022-07-23T07:04:37;28.60;94.60
41664;DHT22;27353;50.906;7.248;2022-07-23T07:07:03;28.80;93.30
41664;DHT22;27353;50.906;7.248;2022-07-23T07:09:28;29.00;91.70
41664;DHT22;27353;50.906;7.248;2022-07-23T07:11:54;29.00;90.70
41664;DHT22;27353;50.906;7.248;2022-07-23T07:14:20;29.00;90.70
41664;DHT22;27353;50.906;7.248;2022-07-23T07:16:46;29.50;89.40
41664;DHT22;27353;50.906;7.248;2022-07-23T07:19:12;29.10;90.40
41664;DHT22;27353;50.906;7.248;2022-07-23T07:21:37;30.00;89.70
41664;DHT22;27353;50.906;7.248;2022-07-23T07:24:03;30.30;83.40
41664;DHT22;27353;50.906;7.248;2022-07-23T07:26:30;30.00;83.80
41664;DHT22;27353;50.906;7.248;2022-07-23T07:28:56;29.60;83.50
41664;DHT22;27353;50.906;7.248;2022-07-23T07:31:22;30.40;82.50
41664;DHT22;27353;50.906;7.248;2022-07-23T07:33:48;31.30;79.20
41664;DHT22;27353;50.906;7.248;2022-07-23T07:36:14;30.80;77.80
41664;DHT22;27353;50.906;7.248;2022-07-23T07:38:40;31.20;79.50
41664;DHT22;27353;50.906;7.248;2022-07-23T07:41:05;30.70;80.50
41664;DHT22;27353;50.906;7.248;2022-07-23T07:43:33;31.30;76.30
41664;DHT22;27353;50.906;7.248;2022-07-23T07:45:58;31.50;76.80
41664;DHT22;27353;50.906;7.248;2022-07-23T07:48:24;31.70;78.50
41664;DHT22;27353;50.906;7.248;2022-07-23T07:50:50;32.10;74.10
41664;DHT22;27353;50.906;7.248;2022-07-23T07:53:16;31.60;78.10
41664;DHT22;27353;50.906;7.248;2022-07-23T07:55:41;31.20;74.70
41664;DHT22;27353;50.906;7.248;2022-07-23T07:58:07;31.70;76.90
41664;DHT22;27353;50.906;7.248;2022-07-23T08:00:33;32.00;75.00
41664;DHT22;27353;50.906;7.248;2022-07-23T08:02:59;33.10;73.10
41664;DHT22;27353;50.906;7.248;2022-07-23T08:05:26;32.00;74.50
41664;DHT22;27353;50.906;7.248;2022-07-23T08:07:53;32.50;69.40
41664;DHT22;27353;50.906;7.248;2022-07-23T08:10:19;33.50;71.30
41664;DHT22;27353;50.906;7.248;2022-07-23T08:12:49;34.10;69.10
41664;DHT22;27353;50.906;7.248;2022-07-23T08:15:17;34.60;68.40
41664;DHT22;27353;50.906;7.248;2022-07-23T08:17:44;34.80;65.10
41664;DHT22;27353;50.906;7.248;2022-07-23T08:20:11;34.80;62.90
41664;DHT22;27353;50.906;7.248;2022-07-23T08:22:55;34.00;67.20
41664;DHT22;27353;50.906;7.248;2022-07-23T08:27:58;33.80;66.50
41664;DHT22;27353;50.906;7.248;2022-07-23T08:30:24;33.80;67.30
41664;DHT22;27353;50.906;7.248;2022-07-23T08:35:35;33.50;66.40
41664;DHT22;27353;50.906;7.248;2022-07-23T08:38:03;33.90;66.80
41664;DHT22;27353;50.906;7.248;2022-07-23T08:40:31;33.60;67.00
41664;DHT22;27353;50.906;7.248;2022-07-23T08:42:57;33.80;65.70
41664;DHT22;27353;50.906;7.248;2022-07-23T08:45:25;32.40;69.00
41664;DHT22;27353;50.906;7.248;2022-07-23T08:47:55;32.40;69.50
41664;DHT22;27353;50.906;7.248;2022-07-23T08:50:22;32.30;69.60
41664;DHT22;27353;50.906;7.248;2022-07-23T08:52:49;32.60;67.20
41664;DHT22;27353;50.906;7.248;2022-07-23T08:55:20;32.70;68.50
41664;DHT22;27353;50.906;7.248;2022-07-23T08:57:47;32.30;70.20
41664;DHT22;27353;50.906;7.248;2022-07-23T09:00:13;32.30;66.60
41664;DHT22;27353;50.906;7.248;2022-07-23T09:02:41;32.30;69.70
41664;DHT22;27353;50.906;7.248;2022-07-23T09:05:10;31.70;68.60
41664;DHT22;27353;50.906;7.248;2022-07-23T09:07:37;31.30;70.10
41664;DHT22;27353;50.906;7.248;2022-07-23T09:10:08;30.90;68.20
41664;DHT22;27353;50.906;7.248;2022-07-23T09:12:35;31.20;74.50
41664;DHT22;27353;50.906;7.248;2022-07-23T09:15:06;31.50;70.90
41664;DHT22;27353;50.906;7.248;2022-07-23T09:17:38;30.80;69.30
41664;DHT22;27353;50.906;7.248;2022-07-23T09:20:09;30.50;70.30
41664;DHT22;27353;50.906;7.248;2022-07-23T09:22:35;30.80;71.70
41664;DHT22;27353;50.906;7.248;2022-07-23T09:25:06;30.30;68.60
41664;DHT22;27353;50.906;7.248;2022-07-23T09:30:19;30.40;74.50
41664;DHT22;27353;50.906;7.248;2022-07-23T09:38:14;30.60;74.70
41664;DHT22;27353;50.906;7.248;2022-07-23T09:40:39;30.40;72.30
41664;DHT22;27353;50.906;7.248;2022-07-23T09:43:05;30.50;70.60
41664;DHT22;27353;50.906;7.248;2022-07-23T09:45:31;30.60;73.00
41664;DHT22;27353;50.906;7.248;2022-07-23T09:48:14;30.70;71.30
41664;DHT22;27353;50.906;7.248;2022-07-23T09:50:41;29.90;71.70
41664;DHT22;27353;50.906;7.248;2022-07-23T09:53:07;29.70;74.40
41664;DHT22;27353;50.906;7.248;2022-07-23T09:55:35;30.20;73.30
41664;DHT22;27353;50.906;7.248;2022-07-23T09:58:06;29.60;72.20
41664;DHT22;27353;50.906;7.248;2022-07-23T10:00:38;30.30;74.80
41664;DHT22;27353;50.906;7.248;2022-07-23T10:03:06;31.00;73.10
41664;DHT22;27353;50.906;7.248;2022-07-23T10:05:33;31.30;69.80
41664;DHT22;27353;50.906;7.248;2022-07-23T10:08:01;31.60;74.20
41664;DHT22;27353;50.906;7.248;2022-07-23T10:10:27;31.00;70.40
41664;DHT22;27353;50.906;7.248;2022-07-23T10:12:55;31.40;71.50
41664;DHT22;27353;50.906;7.248;2022-07-23T10:15:27;31.60;71.90
41664;DHT22;27353;50.906;7.248;2022-07-23T10:17:53;32.00;71.20
41664;DHT22;27353;50.906;7.248;2022-07-23T10:20:18;32.20;73.20
41664;DHT22;27353;50.906;7.248;2022-07-23T10:23:12;32.50;66.20
41664;DHT22;27353;50.906;7.248;2022-07-23T10:25:55;32.30;64.40
41664;DHT22;27353;50.906;7.248;2022-07-23T10:28:33;32.20;65.90
41664;DHT22;27353;50.906;7.248;2022-07-23T10:31:40;31.70;67.50
41664;DHT22;27353;50.906;7.248;2022-07-23T10:34:19;31.80;69.80
41664;DHT22;27353;50.906;7.248;2022-07-23T10:36:56;31.80;70.70
41664;DHT22;27353;50.906;7.248;2022-07-23T10:39:33;32.30;70.10
41664;DHT22;27353;50.906;7.248;2022-07-23T10:42:15;32.30;65.90
41664;DHT22;27353;50.906;7.248;2022-07-23T10:44:48;32.00;67.50
41664;DHT22;27353;50.906;7.248;2022-07-23T10:47:30;32.20;70.20
41664;DHT22;27353;50.906;7.248;2022-07-23T10:58:01;32.30;65.10
41664;DHT22;27353;50.906;7.248;2022-07-23T11:00:29;31.90;63.40
41664;DHT22;27353;50.906;7.248;2022-07-23T11:02:57;31.90;67.30
41664;DHT22;27353;50.906;7.248;2022-07-23T11:05:44;31.40;68.10
41664;DHT22;27353;50.906;7.248;2022-07-23T11:08:18;31.20;68.30
41664;DHT22;27353;50.906;7.248;2022-07-23T11:13:26;30.90;66.50
41664;DHT22;27353;50.906;7.248;2022-07-23T11:24:16;31.50;67.90
41664;DHT22;27353;50.906;7.248;2022-07-23T11:26:49;31.40;67.00
41664;DHT22;27353;50.906;7.248;2022-07-23T11:34:39;31.20;68.00
41664;DHT22;27353;50.906;7.248;2022-07-23T11:37:07;31.60;65.00
41664;DHT22;27353;50.906;7.248;2022-07-23T11:39:33;31.50;64.30
41664;DHT22;27353;50.906;7.248;2022-07-23T11:42:00;31.60;65.00
41664;DHT22;27353;50.906;7.248;2022-07-23T11:44:27;31.70;66.70
41664;DHT22;27353;50.906;7.248;2022-07-23T11:49:29;30.70;66.20
41664;DHT22;27353;50.906;7.248;2022-07-23T11:52:14;30.90;64.20
41664;DHT22;27353;50.906;7.248;2022-07-23T11:55:08;30.80;67.90
41664;DHT22;27353;50.906;7.248;2022-07-23T11:57:39;31.20;63.40
41664;DHT22;27353;50.906;7.248;2022-07-23T12:00:13;31.10;67.60
41664;DHT22;27353;50.906;7.248;2022-07-23T12:02:44;30.70;67.40
41664;DHT22;27353;50.906;7.248;2022-07-23T12:05:14;30.80;66.40
41664;DHT22;27353;50.906;7.248;2022-07-23T12:07:42;30.60;67.60
41664;DHT22;27353;50.906;7.248;2022-07-23T12:10:38;30.30;67.50
41664;DHT22;27353;50.906;7.248;2022-07-23T12:13:07;30.80;69.00
41664;DHT22;27353;50.906;7.248;2022-07-23T12:15:38;30.60;65.40
41664;DHT22;27353;50.906;7.248;2022-07-23T12:18:06;30.70;65.30
41664;DHT22;27353;50.906;7.248;2022-07-23T12:20:37;30.80;64.10
41664;DHT22;27353;50.906;7.248;2022-07-23T12:23:05;30.80;62.80
41664;DHT22;27353;50.906;7.248;2022-07-23T12:25:36;30.10;67.80
41664;DHT22;27353;50.906;7.248;2022-07-23T12:28:07;30.20;66.00
41664;DHT22;27353;50.906;7.248;2022-07-23T12:30:40;30.40;65.10
41664;DHT22;27353;50.906;7.248;2022-07-23T12:33:08;30.40;67.10
41664;DHT22;27353;50.906;7.248;2022-07-23T12:35:42;30.60;64.40
41664;DHT22;27353;50.906;7.248;2022-07-23T12:38:16;30.70;64.50
41664;DHT22;27353;50.906;7.248;2022-07-23T12:40:47;30.60;65.10
41664;DHT22;27353;50.906;7.248;2022-07-23T12:46:00;30.70;66.70
41664;DHT22;27353;50.906;7.248;2022-07-23T12:48:29;30.80;62.30
41664;DHT22;27353;50.906;7.248;2022-07-23T12:51:02;30.80;65.30
41664;DHT22;27353;50.906;7.248;2022-07-23T12:53:42;30.60;61.50
41664;DHT22;27353;50.906;7.248;2022-07-23T12:56:30;30.30;64.40
41664;DHT22;27353;50.906;7.248;2022-07-23T13:01:35;30.30;67.50
41664;DHT22;27353;50.906;7.248;2022-07-23T13:06:32;30.30;64.20
41664;DHT22;27353;50.906;7.248;2022-07-23T13:08:59;30.20;70.00
41664;DHT22;27353;50.906;7.248;2022-07-23T13:11:24;30.30;67.50
41664;DHT22;27353;50.906;7.248;2022-07-23T13:13:50;30.40;66.60
41664;DHT22;27353;50.906;7.248;2022-07-23T13:16:16;30.60;69.80
41664;DHT22;27353;50.906;7.248;2022-07-23T13:18:42;30.50;63.50
41664;DHT22;27353;50.906;7.248;2022-07-23T13:21:08;30.20;65.50
41664;DHT22;27353;50.906;7.248;2022-07-23T13:23:34;30.40;64.50
41664;DHT22;27353;50.906;7.248;2022-07-23T13:25:59;30.30;69.40
41664;DHT22;27353;50.906;7.248;2022-07-23T13:28:25;30.20;66.70
41664;DHT22;27353;50.906;7.248;2022-07-23T13:30:52;29.90;64.40
41664;DHT22;27353;50.906;7.248;2022-07-23T13:33:23;29.80;68.00
41664;DHT22;27353;50.906;7.248;2022-07-23T13:35:50;29.80;68.40
41664;DHT22;27353;50.906;7.248;2022-07-23T13:38:16;29.60;65.00
41664;DHT22;27353;50.906;7.248;2022-07-23T13:40:43;29.00;68.50
41664;DHT22;27353;50.906;7.248;2022-07-23T13:43:11;29.20;70.20
41664;DHT22;27353;50.906;7.248;2022-07-23T13:45:37;29.60;71.50
41664;DHT22;27353;50.906;7.248;2022-07-23T13:48:04;29.80;68.70
41664;DHT22;27353;50.906;7.248;2022-07-23T13:50:30;30.00;64.90
41664;DHT22;27353;50.906;7.248;2022-07-23T13:52:56;30.10;64.80
41664;DHT22;27353;50.906;7.248;2022-07-23T13:55:22;30.00;65.10
41664;DHT22;27353;50.906;7.248;2022-07-23T13:57:48;29.90;66.40
41664;DHT22;27353;50.906;7.248;2022-07-23T14:00:14;30.20;67.40
41664;DHT22;27353;50.906;7.248;2022-07-23T14:02:40;30.30;66.40
41664;DHT22;27353;50.906;7.248;2022-07-23T14:05:08;30.40;65.30
41664;DHT22;27353;50.906;7.248;2022-07-23T14:07:35;29.90;65.30
41664;DHT22;27353;50.906;7.248;2022-07-23T14:10:04;30.00;65.70
41664;DHT22;27353;50.906;7.248;2022-07-23T14:12:30;29.50;65.60
41664;DHT22;27353;50.906;7.248;2022-07-23T14:14:56;29.70;68.00
41664;DHT22;27353;50.906;7.248;2022-07-23T14:17:22;29.40;66.70
41664;DHT22;27353;50.906;7.248;2022-07-23T14:19:48;29.40;67.00
41664;DHT22;27353;50.906;7.248;2022-07-23T14:22:13;29.40;65.00
41664;DHT22;27353;50.906;7.248;2022-07-23T14:24:39;29.20;66.40
41664;DHT22;27353;50.906;7.248;2022-07-23T14:27:05;29.00;65.80
41664;DHT22;27353;50.906;7.248;2022-07-23T14:29:31;29.10;68.80
41664;DHT22;27353;50.906;7.248;2022-07-23T14:31:57;29.00;68.60
41664;DHT22;27353;50.906;7.248;2022-07-23T14:34:23;29.10;69.00
41664;DHT22;27353;50.906;7.248;2022-07-23T14:36:49;29.10;65.20
41664;DHT22;27353;50.906;7.248;2022-07-23T14:39:14;28.70;66.90
41664;DHT22;27353;50.906;7.248;2022-07-23T14:41:40;29.00;66.80
41664;DHT22;27353;50.906;7.248;2022-07-23T14:44:06;29.00;65.60
41664;DHT22;27353;50.906;7.248;2022-07-23T14:46:31;28.90;66.60
41664;DHT22;27353;50.906;7.248;2022-07-23T14:48:57;28.80;67.40
41664;DHT22;27353;50.906;7.248;2022-07-23T14:51:23;28.90;69.60
41664;DHT22;27353;50.906;7.248;2022-07-23T14:53:48;28.90;69.60
41664;DHT22;27353;50.906;7.248;2022-07-23T14:56:14;28.50;69.60
41664;DHT22;27353;50.906;7.248;2022-07-23T14:58:40;28.60;72.60
41664;DHT22;27353;50.906;7.248;2022-07-23T15:01:06;28.80;71.10
41664;DHT22;27353;50.906;7.248;2022-07-23T15:03:33;28.70;69.80
41664;DHT22;27353;50.906;7.248;2022-07-23T15:05:59;28.70;71.20
41664;DHT22;27353;50.906;7.248;2022-07-23T15:08:24;28.70;70.60
41664;DHT22;27353;50.906;7.248;2022-07-23T15:10:50;28.60;71.50
41664;DHT22;27353;50.906;7.248;2022-07-23T15:13:17;28.70;72.70
41664;DHT22;27353;50.906;7.248;2022-07-23T15:15:42;28.50;70.80
41664;DHT22;27353;50.906;7.248;2022-07-23T15:18:08;28.40;68.80
41664;DHT22;27353;50.906;7.248;2022-07-23T15:20:34;28.60;71.40
41664;DHT22;27353;50.906;7.248;2022-07-23T15:22:59;28.60;70.50
41664;DHT22;27353;50.906;7.248;2022-07-23T15:25:25;28.60;71.70
41664;DHT22;27353;50.906;7.248;2022-07-23T15:27:51;28.40;72.50
41664;DHT22;27353;50.906;7.248;2022-07-23T15:30:17;28.70;72.40
41664;DHT22;27353;50.906;7.248;2022-07-23T15:32:43;28.60;71.90
41664;DHT22;27353;50.906;7.248;2022-07-23T15:35:08;28.50;73.40
41664;DHT22;27353;50.906;7.248;2022-07-23T15:37:35;28.20;73.30
41664;DHT22;27353;50.906;7.248;2022-07-23T15:40:01;28.00;73.50
41664;DHT22;27353;50.906;7.248;2022-07-23T15:42:29;28.00;75.10
41664;DHT22;27353;50.906;7.248;2022-07-23T15:44:54;28.20;75.10
41664;DHT22;27353;50.906;7.248;2022-07-23T15:47:20;28.10;73.70
41664;DHT22;27353;50.906;7.248;2022-07-23T15:49:47;27.90;74.00
41664;DHT22;27353;50.906;7.248;2022-07-23T15:52:12;27.80;73.50
41664;DHT22;27353;50.906;7.248;2022-07-23T15:54:39;27.60;73.50
41664;DHT22;27353;50.906;7.248;2022-07-23T15:57:05;27.60;74.70
41664;DHT22;27353;50.906;7.248;2022-07-23T15:59:31;27.60;73.80
41664;DHT22;27353;50.906;7.248;2022-07-23T16:01:57;27.60;73.30
41664;DHT22;27353;50.906;7.248;2022-07-23T16:04:23;27.60;74.50
41664;DHT22;27353;50.906;7.248;2022-07-23T16:06:49;27.60;72.80
41664;DHT22;27353;50.906;7.248;2022-07-23T16:09:14;27.60;75.30
41664;DHT22;27353;50.906;7.248;2022-07-23T16:11:40;27.60;73.50
41664;DHT22;27353;50.906;7.248;2022-07-23T16:14:06;27.50;74.10
41664;DHT22;27353;50.906;7.248;2022-07-23T16:16:31;27.50;72.70
41664;DHT22;27353;50.906;7.248;2022-07-23T16:18:57;27.40;73.20